createdAt,value
2018-07-19T00:01:31.024Z,51.32
2018-07-19T00:04:01.209Z,51.07
2018-07-19T00:06:31.484Z,51.65
2018-07-19T00:09:01.662Z,51.85
2018-07-19T00:11:31.860Z,51.84
2018-07-19T00:14:02.053Z,51.96
2018-07-19T00:16:38.298Z,52.12
2018-07-19T00:19:08.464Z,52.08
2018-07-19T00:21:38.760Z,52.03
2018-07-19T00:24:09.034Z,51.95
2018-07-19T00:26:39.355Z,51.91
2018-07-19T00:29:10.092Z,52.20
2018-07-19T00:31:40.352Z,52.50
2018-07-19T00:34:10.626Z,52.16
2018-07-19T00:36:42.247Z,52.30
2018-07-19T00:39:12.514Z,52.55
2018-07-19T00:41:45.718Z,52.75
2018-07-19T00:44:17.219Z,52.82
2018-07-19T00:46:49.556Z,53.24
2018-07-19T00:49:20.490Z,52.83
2018-07-19T00:51:51.927Z,53.40
2018-07-19T00:54:22.122Z,53.42
2018-07-19T00:56:52.338Z,53.52
2018-07-19T00:59:22.870Z,53.90
2018-07-19T01:01:53.022Z,53.49
2018-07-19T01:04:23.234Z,54.37
2018-07-19T01:06:53.554Z,54.75
2018-07-19T01:09:23.750Z,54.86
2018-07-19T01:11:53.965Z,54.65
2018-07-19T01:14:24.141Z,54.63
2018-07-19T01:16:54.352Z,54.75
2018-07-19T01:19:24.454Z,54.94
2018-07-19T01:21:54.681Z,55.28
2018-07-19T01:24:24.901Z,56.19
2018-07-19T01:26:55.029Z,55.99
2018-07-19T01:29:25.181Z,56.37
2018-07-19T01:31:55.407Z,56.17
2018-07-19T01:34:25.527Z,56.75
2018-07-19T01:36:55.700Z,56.91
2018-07-19T01:39:25.800Z,56.79
2018-07-19T01:42:38.507Z,57.49
2018-07-19T01:45:10.188Z,58.37
2018-07-19T01:47:41.242Z,58.18
2018-07-19T01:50:12.059Z,59.27
2018-07-19T01:52:42.218Z,59.30
2018-07-19T01:55:12.406Z,59.26
2018-07-19T01:57:42.147Z,59.49
2018-07-19T02:00:12.345Z,59.88
2018-07-19T02:02:42.504Z,60.30
2018-07-19T02:05:12.767Z,60.11
2018-07-19T02:07:42.962Z,60.69
2018-07-19T02:10:13.177Z,61.24
2018-07-19T02:12:43.381Z,61.60
2018-07-19T02:15:13.570Z,61.45
2018-07-19T02:17:43.818Z,61.50
2018-07-19T02:20:13.973Z,60.92
2018-07-19T02:22:44.190Z,60.30
2018-07-19T02:25:14.341Z,60.72
2018-07-19T02:27:44.577Z,59.92
2018-07-19T02:30:14.706Z,59.82
2018-07-19T02:32:45.147Z,59.64
2018-07-19T02:35:15.299Z,60.44
2018-07-19T02:37:45.488Z,60.46
2018-07-19T02:40:15.677Z,60.90
2018-07-19T02:42:45.833Z,60.38
2018-07-19T02:45:15.959Z,59.59
2018-07-19T02:47:46.168Z,59.39
2018-07-19T02:50:16.311Z,59.91
2018-07-19T02:52:46.483Z,59.55
2018-07-19T02:55:16.664Z,59.98
2018-07-19T02:57:46.871Z,60.32
2018-07-19T03:00:17.044Z,60.32
2018-07-19T03:02:47.233Z,60.03
2018-07-19T03:05:17.342Z,59.83
2018-07-19T03:07:47.569Z,59.91
2018-07-19T03:10:17.626Z,60.25
2018-07-19T03:12:47.772Z,60.56
2018-07-19T03:15:17.913Z,61.09
2018-07-19T03:17:48.107Z,60.91
2018-07-19T03:20:18.281Z,61.74
2018-07-19T03:22:48.451Z,61.84
2018-07-19T03:25:18.598Z,61.17
2018-07-19T03:27:48.719Z,61.93
2018-07-19T03:30:18.886Z,61.87
2018-07-19T03:32:49.114Z,62.42
2018-07-19T03:35:19.229Z,62.24
2018-07-19T03:37:49.397Z,61.98
2018-07-19T03:40:19.563Z,61.50
2018-07-19T03:42:49.805Z,61.49
2018-07-19T03:45:20.056Z,60.89
2018-07-19T03:47:50.297Z,61.70
2018-07-19T03:50:20.539Z,62.07
2018-07-19T03:52:50.795Z,64.18
2018-07-19T03:55:21.067Z,63.70
2018-07-19T03:57:51.532Z,63.80
2018-07-19T04:00:21.660Z,64.07
2018-07-19T04:02:51.833Z,64.16
2018-07-19T04:05:21.990Z,64.48
2018-07-19T04:07:52.450Z,64.25
2018-07-19T04:10:22.716Z,64.24
2018-07-19T04:12:53.094Z,64.27
2018-07-19T04:15:23.364Z,64.26
2018-07-19T04:17:57.549Z,63.46
2018-07-19T04:20:28.903Z,62.88
2018-07-19T04:22:59.168Z,62.55
2018-07-19T04:25:29.467Z,61.68
2018-07-19T04:27:59.634Z,61.82
2018-07-19T04:30:29.730Z,61.03
2018-07-19T04:32:59.902Z,60.80
2018-07-19T04:35:30.067Z,59.40
2018-07-19T04:38:00.202Z,58.80
2018-07-19T04:40:30.389Z,58.19
2018-07-19T04:43:00.531Z,57.74
2018-07-19T04:45:30.695Z,58.16
2018-07-19T04:48:00.887Z,57.26
2018-07-19T04:50:31.055Z,56.78
2018-07-19T04:53:01.205Z,56.50
2018-07-19T04:55:31.390Z,57.02
2018-07-19T04:58:01.577Z,56.68
2018-07-19T05:00:31.773Z,56.52
2018-07-19T05:03:01.979Z,56.03
2018-07-19T05:05:32.381Z,56.19
2018-07-19T05:08:02.522Z,57.38
2018-07-19T05:10:32.630Z,57.16
2018-07-19T05:13:03.051Z,57.90
2018-07-19T05:15:33.402Z,56.68
2018-07-19T05:18:03.578Z,56.71
2018-07-19T05:20:34.371Z,56.79
2018-07-19T05:23:04.667Z,55.99
2018-07-19T05:25:34.953Z,56.25
2018-07-19T05:28:05.232Z,55.45
2018-07-19T05:30:35.414Z,55.53
2018-07-19T05:33:05.639Z,54.98
2018-07-19T05:35:35.864Z,55.15
2018-07-19T05:38:06.063Z,54.50
2018-07-19T05:40:36.251Z,53.66
2018-07-19T05:43:06.392Z,53.60
2018-07-19T05:45:36.600Z,53.42
2018-07-19T05:48:06.812Z,52.77
2018-07-19T05:50:37.304Z,53.42
2018-07-19T05:53:07.639Z,51.54
2018-07-19T05:55:37.792Z,51.76
2018-07-19T05:58:08.125Z,51.11
2018-07-19T06:00:38.232Z,50.25
2018-07-19T06:03:08.466Z,49.99
2018-07-19T06:05:38.712Z,49.42
2018-07-19T06:08:08.907Z,47.51
2018-07-19T06:10:39.084Z,46.95
2018-07-19T06:13:09.413Z,45.70
2018-07-19T06:15:39.592Z,47.08
2018-07-19T06:18:09.857Z,47.19
2018-07-19T06:20:40.061Z,45.33
2018-07-19T06:23:10.309Z,45.35
2018-07-19T06:25:40.547Z,45.34
2018-07-19T06:28:10.765Z,44.83
2018-07-19T06:30:40.759Z,42.94
2018-07-19T06:33:11.181Z,41.66
2018-07-19T06:35:41.301Z,42.31
2018-07-19T06:38:11.527Z,42.59
2018-07-19T06:40:41.267Z,43.48
2018-07-19T06:43:11.722Z,43.13
2018-07-19T06:45:42.224Z,43.12
2018-07-19T06:48:12.404Z,42.42
2018-07-19T06:50:42.601Z,45.09
2018-07-19T06:53:12.777Z,43.88
2018-07-19T06:55:43.022Z,43.76
2018-07-19T06:58:12.909Z,43.65
2018-07-19T07:00:43.067Z,42.83
2018-07-19T07:03:13.448Z,42.20
2018-07-19T07:05:43.617Z,42.13
2018-07-19T07:08:13.913Z,42.30
2018-07-19T07:10:49.533Z,44.13
2018-07-19T07:13:19.737Z,41.64
2018-07-19T07:15:50.049Z,39.07
2018-07-19T07:18:20.246Z,40.28
2018-07-19T07:20:54.208Z,39.75
2018-07-19T07:23:24.489Z,37.86
2018-07-19T07:25:55.734Z,35.76
2018-07-19T07:28:27.489Z,36.03
2018-07-19T07:30:57.646Z,37.81
2018-07-19T07:33:27.845Z,36.85
2018-07-19T07:35:58.130Z,36.90
2018-07-19T07:38:28.312Z,33.24
2018-07-19T07:40:58.608Z,31.26
2018-07-19T07:43:28.884Z,29.09
2018-07-19T07:45:59.010Z,27.27
2018-07-19T07:48:32.503Z,26.12
2018-07-19T07:51:02.637Z,25.91
2018-07-19T07:53:32.872Z,27.47
2018-07-19T07:56:03.298Z,30.10
2018-07-19T07:58:33.554Z,29.89
2018-07-19T08:01:03.761Z,30.67
2018-07-19T08:03:33.911Z,29.94
2018-07-19T08:06:04.193Z,31.51
2018-07-19T08:08:34.643Z,31.99
2018-07-19T08:11:04.885Z,31.64
2018-07-19T08:13:35.053Z,32.09
2018-07-19T08:16:05.281Z,29.91
2018-07-19T08:18:35.607Z,30.67
2018-07-19T08:21:05.719Z,30.13
2018-07-19T08:23:35.924Z,31.22
2018-07-19T08:26:06.423Z,31.44
2018-07-19T08:28:36.653Z,30.89
2018-07-19T08:31:06.785Z,30.22
2018-07-19T08:33:36.948Z,30.73
2018-07-19T08:36:07.284Z,31.60
2018-07-19T08:38:37.609Z,31.47
2018-07-19T08:41:07.971Z,31.39
2018-07-19T08:43:45.017Z,32.14
2018-07-19T08:46:15.356Z,32.54
2018-07-19T08:48:45.524Z,31.88
2018-07-19T08:51:15.736Z,29.96
2018-07-19T08:53:45.897Z,28.23
2018-07-19T08:58:46.183Z,27.66
2018-07-19T09:01:16.505Z,26.90
2018-07-19T09:03:51.957Z,29.25
2018-07-19T09:06:25.688Z,29.69
2018-07-19T09:09:01.739Z,27.97
2018-07-19T09:11:33.496Z,27.97
2018-07-19T09:14:05.995Z,28.28
2018-07-19T09:16:36.229Z,27.98
2018-07-19T09:19:08.995Z,27.28
2018-07-19T09:21:39.297Z,25.72
2018-07-19T09:24:09.584Z,26.97
2018-07-19T09:26:39.791Z,26.39
2018-07-19T09:29:09.983Z,26.96
2018-07-19T09:31:40.186Z,27.14
2018-07-19T09:34:10.397Z,26.98
2018-07-19T09:36:40.616Z,26.05
2018-07-19T09:39:12.888Z,25.24
2018-07-19T09:41:43.880Z,25.36
2018-07-19T09:44:14.014Z,27.48
2018-07-19T09:46:44.146Z,26.30
2018-07-19T09:49:14.370Z,26.41
2018-07-19T09:51:44.500Z,26.24
2018-07-19T09:54:30.017Z,26.44
2018-07-19T09:57:00.136Z,26.41
2018-07-19T09:59:31.671Z,24.81
2018-07-19T10:02:01.835Z,25.58
2018-07-19T10:04:32.048Z,26.12
2018-07-19T10:07:02.343Z,25.24
2018-07-19T10:09:32.695Z,28.18
2018-07-19T10:12:06.909Z,26.99
2018-07-19T10:14:38.673Z,28.34
2018-07-19T10:17:08.874Z,26.59
2018-07-19T10:19:39.192Z,25.61
2018-07-19T10:22:09.428Z,26.18
2018-07-19T10:24:39.624Z,26.76
2018-07-19T10:27:09.840Z,27.09
2018-07-19T10:29:40.563Z,27.00
2018-07-19T10:32:11.072Z,27.08
2018-07-19T10:34:41.155Z,26.39
2018-07-19T10:37:11.313Z,27.79
2018-07-19T10:39:41.476Z,30.19
2018-07-19T10:42:11.966Z,30.87
2018-07-19T10:44:42.153Z,30.64
2018-07-19T10:47:12.591Z,28.96
2018-07-19T10:49:42.751Z,31.44
2018-07-19T10:52:12.904Z,30.51
2018-07-19T10:54:43.134Z,28.26
2018-07-19T10:57:13.303Z,28.63
2018-07-19T10:59:43.528Z,30.10
2018-07-19T11:02:13.734Z,28.75
2018-07-19T11:04:43.971Z,28.01
2018-07-19T11:07:14.084Z,28.33
2018-07-19T11:09:44.912Z,27.49
2018-07-19T11:12:15.041Z,26.56
2018-07-19T11:14:45.190Z,27.24
2018-07-19T11:17:15.371Z,28.19
2018-07-19T11:19:45.492Z,27.55
2018-07-19T11:22:15.637Z,27.17
2018-07-19T11:24:45.888Z,27.79
2018-07-19T11:27:16.062Z,27.41
2018-07-19T11:29:46.265Z,26.96
2018-07-19T11:32:16.585Z,27.20
2018-07-19T11:34:46.955Z,28.09
2018-07-19T11:37:17.190Z,27.80
2018-07-19T11:39:47.779Z,29.38
2018-07-19T11:42:17.873Z,28.49
2018-07-19T11:44:47.998Z,27.98
2018-07-19T11:47:18.192Z,30.17
2018-07-19T11:49:48.394Z,28.92
2018-07-19T11:52:18.509Z,31.20
2018-07-19T11:54:48.671Z,28.90
2018-07-19T11:57:18.896Z,28.59
2018-07-19T11:59:49.018Z,28.91
2018-07-19T12:02:19.197Z,28.80
2018-07-19T12:04:49.382Z,28.54
2018-07-19T12:07:19.643Z,27.68
2018-07-19T12:09:49.799Z,27.31
2018-07-19T12:12:19.928Z,27.26
2018-07-19T12:14:50.168Z,27.49
2018-07-19T12:17:20.339Z,26.88
2018-07-19T12:19:50.578Z,26.95
2018-07-19T12:22:20.935Z,30.38
2018-07-19T12:24:51.145Z,30.20
2018-07-19T12:27:21.308Z,29.22
2018-07-19T12:29:51.585Z,28.99
2018-07-19T12:32:23.995Z,28.31
2018-07-19T12:34:54.275Z,28.74
2018-07-19T12:37:24.423Z,29.07
2018-07-19T12:39:54.556Z,29.04
2018-07-19T12:42:24.795Z,30.59
2018-07-19T12:44:55.029Z,29.98
2018-07-19T12:47:25.156Z,27.51
2018-07-19T12:49:55.292Z,26.90
2018-07-19T12:52:25.505Z,25.42
2018-07-19T12:54:55.638Z,27.60
2018-07-19T12:57:25.756Z,25.08
2018-07-19T12:59:55.978Z,25.60
2018-07-19T13:02:26.151Z,24.50
2018-07-19T13:04:56.664Z,24.12
2018-07-19T13:07:26.856Z,23.67
2018-07-19T13:09:57.020Z,23.67
2018-07-19T13:12:27.161Z,25.66
2018-07-19T13:14:57.399Z,25.16
2018-07-19T13:17:27.593Z,25.30
2018-07-19T13:19:57.793Z,23.80
2018-07-19T13:22:27.946Z,24.27
2018-07-19T13:24:57.716Z,23.67
2018-07-19T13:27:27.957Z,23.71
2018-07-19T13:29:58.331Z,22.94
2018-07-19T13:32:28.437Z,24.00
2018-07-19T13:34:58.680Z,24.94
2018-07-19T13:37:28.859Z,26.45
2018-07-19T13:39:59.027Z,24.06
2018-07-19T13:42:29.166Z,24.06
2018-07-19T13:45:00.282Z,23.04
2018-07-19T13:47:30.433Z,23.73
2018-07-19T13:50:00.598Z,23.28
2018-07-19T13:52:47.250Z,22.69
2018-07-19T13:55:17.407Z,23.15
2018-07-19T13:57:47.544Z,24.18
2018-07-19T14:00:17.721Z,23.89
2018-07-19T14:02:47.925Z,25.02
2018-07-19T14:05:18.358Z,23.41
2018-07-19T14:07:48.525Z,24.18
2018-07-19T14:10:18.719Z,22.84
2018-07-19T14:12:48.875Z,22.73
2018-07-19T14:15:19.084Z,23.23
2018-07-19T14:17:49.813Z,22.58
2018-07-19T14:20:19.631Z,25.09
2018-07-19T14:22:49.808Z,25.50
2018-07-19T14:25:20.083Z,24.34
2018-07-19T14:27:50.360Z,24.51
2018-07-19T14:30:20.620Z,22.68
2018-07-19T14:32:50.818Z,22.71
2018-07-19T14:35:21.024Z,22.63
2018-07-19T14:37:51.628Z,22.46
2018-07-19T14:40:22.814Z,20.98
2018-07-19T14:42:52.998Z,20.92
2018-07-19T14:45:23.258Z,22.02
2018-07-19T14:47:53.920Z,21.93
2018-07-19T14:50:24.254Z,21.82
2018-07-19T14:52:54.531Z,20.87
2018-07-19T14:55:24.750Z,20.98
2018-07-19T14:57:54.960Z,20.60
2018-07-19T15:00:25.159Z,20.31
2018-07-19T15:02:55.278Z,21.35
2018-07-19T15:05:25.485Z,20.26
2018-07-19T15:07:55.607Z,20.04
2018-07-19T15:10:28.680Z,20.05
2018-07-19T15:12:58.885Z,21.74
2018-07-19T15:15:29.088Z,21.21
2018-07-19T15:17:59.393Z,22.10
2018-07-19T15:20:29.545Z,22.33
2018-07-19T15:23:01.412Z,23.60
2018-07-19T15:25:32.137Z,22.99
2018-07-19T15:28:02.405Z,22.56
2018-07-19T15:30:32.517Z,22.39
2018-07-19T15:33:02.639Z,24.51
2018-07-19T15:35:32.793Z,24.40
2018-07-19T15:38:02.930Z,25.65
2018-07-19T15:40:33.090Z,22.85
2018-07-19T15:43:03.267Z,22.60
2018-07-19T15:45:33.587Z,21.25
2018-07-19T15:48:03.677Z,22.58
2018-07-19T15:50:33.855Z,22.92
2018-07-19T15:53:04.078Z,25.43
2018-07-19T15:55:34.294Z,22.78
2018-07-19T15:58:04.546Z,26.13
2018-07-19T16:00:34.708Z,23.30
2018-07-19T16:03:04.975Z,23.08
2018-07-19T16:05:35.112Z,23.05
2018-07-19T16:08:05.321Z,24.12
2018-07-19T16:10:35.521Z,22.37
2018-07-19T16:13:05.788Z,26.21
2018-07-19T16:15:35.985Z,23.05
2018-07-19T16:18:06.326Z,22.05
2018-07-19T16:20:36.607Z,22.22
2018-07-19T16:23:06.804Z,22.07
2018-07-19T16:25:36.954Z,22.17
2018-07-19T16:28:07.083Z,22.64
2018-07-19T16:30:37.254Z,22.92
2018-07-19T16:33:07.629Z,23.01
2018-07-19T16:35:37.861Z,23.29
2018-07-19T16:38:08.001Z,22.82
2018-07-19T16:40:38.346Z,21.67
2018-07-19T16:43:08.470Z,22.65
2018-07-19T16:45:38.783Z,24.21
2018-07-19T16:48:08.917Z,24.42
2018-07-19T16:50:39.128Z,25.14
2018-07-19T16:53:09.245Z,25.30
2018-07-19T16:55:39.483Z,25.91
2018-07-19T16:58:09.658Z,25.67
2018-07-19T17:00:39.893Z,25.54
2018-07-19T17:03:10.006Z,25.62
2018-07-19T17:05:40.168Z,26.06
2018-07-19T17:08:10.285Z,26.14
2018-07-19T17:10:40.618Z,25.96
2018-07-19T17:13:10.776Z,26.50
2018-07-19T17:15:40.967Z,26.08
2018-07-19T17:18:11.436Z,26.71
2018-07-19T17:20:41.567Z,26.11
2018-07-19T17:23:11.689Z,26.75
2018-07-19T17:25:41.904Z,27.45
2018-07-19T17:28:12.023Z,27.59
2018-07-19T17:30:42.188Z,26.99
2018-07-19T17:33:12.381Z,26.90
2018-07-19T17:35:42.618Z,27.24
2018-07-19T17:38:13.028Z,29.72
2018-07-19T17:40:43.200Z,28.04
2018-07-19T17:43:13.314Z,28.22
2018-07-19T17:45:43.486Z,28.55
2018-07-19T17:48:16.105Z,28.65
2018-07-19T17:50:46.293Z,29.18
2018-07-19T17:53:16.621Z,28.75
2018-07-19T17:55:46.825Z,29.68
2018-07-19T17:58:17.098Z,29.23
2018-07-19T18:00:47.254Z,29.20
2018-07-19T18:03:17.428Z,29.36
2018-07-19T18:05:47.554Z,28.68
2018-07-19T18:08:17.685Z,29.20
2018-07-19T18:10:47.949Z,28.26
2018-07-19T18:13:18.072Z,28.16
2018-07-19T18:15:48.437Z,27.70
2018-07-19T18:18:18.584Z,27.84
2018-07-19T18:20:48.785Z,28.53
2018-07-19T18:23:19.060Z,27.80
2018-07-19T18:25:49.310Z,27.91
2018-07-19T18:28:19.596Z,28.35
2018-07-19T18:30:49.948Z,28.44
2018-07-19T18:33:20.088Z,28.10
2018-07-19T18:35:50.435Z,28.37
2018-07-19T18:38:20.587Z,28.73
2018-07-19T18:40:51.012Z,28.50
2018-07-19T18:43:21.385Z,28.65
2018-07-19T18:45:51.662Z,28.61
2018-07-19T18:48:21.934Z,29.14
2018-07-19T18:50:52.249Z,29.51
2018-07-19T18:53:23.237Z,29.52
2018-07-19T18:55:53.531Z,29.54
2018-07-19T18:58:23.692Z,29.28
2018-07-19T19:00:53.904Z,29.52
2018-07-19T19:03:24.098Z,29.90
2018-07-19T19:05:54.315Z,30.06
2018-07-19T19:08:24.579Z,30.38
2018-07-19T19:10:54.895Z,30.59
2018-07-19T19:13:25.087Z,31.05
2018-07-19T19:15:55.297Z,31.54
2018-07-19T19:18:25.465Z,32.00
2018-07-19T19:20:55.810Z,33.93
2018-07-19T19:23:25.958Z,34.15
2018-07-19T19:25:56.178Z,34.70
2018-07-19T19:28:26.548Z,34.66
2018-07-19T19:30:56.760Z,35.63
2018-07-19T19:33:27.011Z,35.36
2018-07-19T19:35:57.237Z,36.42
2018-07-19T19:38:27.414Z,38.67
2018-07-19T19:40:57.609Z,39.19
2018-07-19T19:43:27.729Z,38.24
2018-07-19T19:45:58.007Z,38.92
2018-07-19T19:48:28.254Z,39.28
2018-07-19T19:50:58.480Z,41.48
2018-07-19T19:53:28.700Z,42.01
2018-07-19T19:55:58.467Z,43.00
2018-07-19T19:58:28.757Z,43.04
2018-07-19T20:00:58.948Z,43.55
2018-07-19T20:03:29.205Z,44.88
2018-07-19T20:05:59.465Z,46.77
2018-07-19T20:08:29.621Z,44.55
2018-07-19T20:10:59.817Z,42.62
2018-07-19T20:13:30.135Z,43.06
2018-07-19T20:16:00.364Z,43.29
2018-07-19T20:18:30.622Z,43.15
2018-07-19T20:21:00.761Z,42.86
2018-07-19T20:23:30.951Z,43.79
2018-07-19T20:26:01.272Z,44.05
2018-07-19T20:28:31.453Z,44.29
2018-07-19T20:31:01.698Z,44.55
2018-07-19T20:33:31.826Z,45.12
2018-07-19T20:36:02.261Z,44.61
2018-07-19T20:38:32.435Z,44.82
2018-07-19T20:41:02.612Z,45.37
2018-07-19T20:43:32.797Z,45.51
2018-07-19T20:46:03.065Z,45.99
2018-07-19T20:48:33.214Z,45.54
2018-07-19T20:51:03.383Z,46.04
2018-07-19T20:53:33.575Z,46.71
2018-07-19T20:56:03.745Z,45.98
2018-07-19T20:58:33.863Z,47.49
2018-07-19T21:01:04.121Z,47.38
2018-07-19T21:03:34.425Z,47.33
2018-07-19T21:06:04.599Z,47.83
2018-07-19T21:08:34.694Z,47.84
2018-07-19T21:11:04.875Z,47.42
2018-07-19T21:13:35.007Z,47.13
2018-07-19T21:16:05.295Z,47.46
2018-07-19T21:18:35.469Z,47.18
2018-07-19T21:21:05.699Z,47.38
2018-07-19T21:23:36.002Z,47.90
2018-07-19T21:26:06.235Z,48.07
2018-07-19T21:28:36.359Z,47.86
2018-07-19T21:31:06.605Z,48.03
2018-07-19T21:33:36.782Z,48.33
2018-07-19T21:36:07.143Z,49.61
2018-07-19T21:38:37.253Z,49.12
2018-07-19T21:41:07.434Z,49.17
2018-07-19T21:43:37.580Z,50.03
2018-07-19T21:46:08.046Z,49.90
2018-07-19T21:48:38.140Z,50.33
2018-07-19T21:51:08.285Z,49.96
2018-07-19T21:53:38.406Z,49.89
2018-07-19T21:56:08.600Z,50.75
2018-07-19T21:58:39.732Z,50.75
2018-07-19T22:01:10.801Z,50.42
2018-07-19T22:03:41.272Z,50.35
2018-07-19T22:06:11.407Z,50.99
2018-07-19T22:08:41.582Z,50.54
2018-07-19T22:13:40.785Z,51.25
2018-07-19T22:16:10.964Z,50.92
2018-07-19T22:18:41.087Z,51.63
2018-07-19T22:21:11.231Z,50.78
2018-07-19T22:23:41.350Z,51.50
2018-07-19T22:26:11.524Z,51.43
2018-07-19T22:28:41.682Z,51.57
2018-07-19T22:31:11.863Z,51.46
2018-07-19T22:33:41.976Z,51.20
2018-07-19T22:36:12.131Z,52.27
2018-07-19T22:38:42.225Z,51.97
2018-07-19T22:41:12.398Z,52.45
2018-07-19T22:43:42.599Z,51.97
2018-07-19T22:46:22.690Z,53.26
2018-07-19T22:48:55.548Z,53.36
2018-07-19T22:51:26.220Z,52.49
2018-07-19T22:53:56.458Z,52.75
2018-07-19T22:56:26.699Z,53.44
2018-07-19T22:58:56.808Z,54.02
2018-07-19T23:01:26.972Z,53.30
2018-07-19T23:03:57.100Z,53.00
2018-07-19T23:06:27.329Z,52.80
2018-07-19T23:08:57.454Z,52.07
2018-07-19T23:11:27.712Z,53.54
2018-07-19T23:13:57.914Z,53.11
2018-07-19T23:16:28.048Z,53.37
2018-07-19T23:18:58.200Z,52.21
2018-07-19T23:21:28.368Z,52.67
2018-07-19T23:23:58.457Z,52.19
2018-07-19T23:26:28.667Z,51.86
2018-07-19T23:28:58.876Z,52.21
2018-07-19T23:31:29.133Z,53.20
2018-07-19T23:33:59.348Z,52.61
2018-07-19T23:36:35.217Z,53.23
2018-07-19T23:39:17.096Z,53.26
2018-07-19T23:42:05.230Z,53.18
2018-07-19T23:44:40.296Z,53.36
2018-07-19T23:47:13.949Z,54.34
2018-07-19T23:49:44.029Z,54.89
2018-07-19T23:52:14.169Z,55.02
2018-07-19T23:54:44.307Z,55.58
2018-07-19T23:57:14.463Z,55.79
2018-07-19T23:59:44.544Z,56.45
